Time;durP1;ratioP1;P1;durP2;ratioP2;P2;SDS_P1;SDS_P2;PMS_P1;PMS_P2;Temp;Humidity;BMP_temperature;BMP_pressure;BME280_temperature;BME280_humidity;BME280_pressure;Samples;Min_cycle;Max_cycle;Signal;HPM_P1;HPM_P2
2024/01/01 00:01:33;;;;;;;;;;;6.30;99.90;;;;;;5036869;28;19933;-67
2024/01/01 00:04:00;;;;;;;;;;;6.40;99.90;;;;;;5035534;28;19955;-68
2024/01/01 00:06:28;;;;;;;;;;;6.40;99.90;;;;;;5033822;28;19933;-67
2024/01/01 00:08:57;;;;;;;;;;;6.40;99.90;;;;;;5035509;28;19933;-67
2024/01/01 00:11:26;;;;;;;;;;;6.40;99.90;;;;;;5035263;28;19990;-67
2024/01/01 00:13:54;;;;;;;;;;;6.40;99.90;;;;;;5036782;28;19928;-67
2024/01/01 00:16:22;;;;;;;;;;;6.50;99.90;;;;;;5053555;28;20014;-67
2024/01/01 00:18:49;;;;;;;;;;;6.40;99.90;;;;;;5056343;28;19940;-67
2024/01/01 00:21:17;;;;;;;;;;;6.40;99.90;;;;;;5057407;28;19932;-67
2024/01/01 00:23:45;;;;;;;;;;;6.40;99.90;;;;;;5057497;28;19933;-67
2024/01/01 00:26:13;;;;;;;;;;;6.50;99.90;;;;;;5055288;28;19939;-67
2024/01/01 00:28:43;;;;;;;;;;;6.50;99.90;;;;;;5055904;28;19932;-65
2024/01/01 00:31:10;;;;;;;;;;;6.50;99.90;;;;;;5055878;28;19933;-67
2024/01/01 00:33:38;;;;;;;;;;;6.60;99.90;;;;;;5053199;28;19944;-67
2024/01/01 00:36:06;;;;;;;;;;;6.60;99.90;;;;;;5054437;28;19925;-67
2024/01/01 00:38:34;;;;;;;;;;;6.50;99.90;;;;;;5057455;28;19924;-66
2024/01/01 00:41:02;;;;;;;;;;;6.50;99.90;;;;;;5055616;28;19978;-67
2024/01/01 00:43:31;;;;;;;;;;;6.50;99.90;;;;;;5056756;28;20094;-66
2024/01/01 00:46:00;;;;;;;;;;;6.50;99.90;;;;;;5055775;28;19954;-67
2024/01/01 00:48:28;;;;;;;;;;;6.50;99.90;;;;;;5054448;28;20034;-66
2024/01/01 00:50:55;;;;;;;;;;;6.40;99.90;;;;;;5055058;28;19933;-67
2024/01/01 00:53:23;;;;;;;;;;;6.50;99.90;;;;;;5055829;28;19928;-66
2024/01/01 00:55:51;;;;;;;;;;;6.40;99.90;;;;;;5057441;28;19928;-68
2024/01/01 00:58:19;;;;;;;;;;;6.50;99.90;;;;;;5054788;28;19932;-67
2024/01/01 01:00:47;;;;;;;;;;;6.50;99.90;;;;;;5056549;28;19936;-66
2024/01/01 01:03:17;;;;;;;;;;;6.50;99.90;;;;;;5056485;28;19935;-67
2024/01/01 01:05:44;;;;;;;;;;;6.50;99.90;;;;;;5052820;28;19966;-68
2024/01/01 01:08:12;;;;;;;;;;;6.50;99.90;;;;;;5054679;28;19951;-67
2024/01/01 01:10:40;;;;;;;;;;;6.60;99.90;;;;;;5053575;28;20039;-67
2024/01/01 01:13:08;;;;;;;;;;;6.60;99.90;;;;;;5047189;28;20410;-66
2024/01/01 01:15:36;;;;;;;;;;;6.60;99.90;;;;;;5041141;28;19933;-66
2024/01/01 01:18:04;;;;;;;;;;;6.70;99.90;;;;;;5031565;28;19929;-65
2024/01/01 01:20:33;;;;;;;;;;;6.70;99.90;;;;;;5038077;28;19932;-66
2024/01/01 01:23:01;;;;;;;;;;;6.80;99.90;;;;;;5031965;28;19944;-68
2024/01/01 01:25:30;;;;;;;;;;;6.90;99.90;;;;;;5050828;28;19976;-66
2024/01/01 01:27:59;;;;;;;;;;;6.90;99.90;;;;;;5047365;28;20222;-66
2024/01/01 01:30:26;;;;;;;;;;;7.20;99.90;;;;;;5040328;28;20434;-66
2024/01/01 01:32:54;;;;;;;;;;;7.40;99.90;;;;;;5031256;28;20365;-66
2024/01/01 01:35:22;;;;;;;;;;;7.50;99.90;;;;;;5031099;28;19983;-66
2024/01/01 01:37:52;;;;;;;;;;;7.50;99.90;;;;;;5031274;28;19940;-66
2024/01/01 01:40:19;;;;;;;;;;;7.30;99.90;;;;;;5032381;28;20363;-66
2024/01/01 01:42:47;;;;;;;;;;;7.10;99.90;;;;;;5031262;28;19929;-66
2024/01/01 01:45:15;;;;;;;;;;;6.90;99.90;;;;;;5030769;28;19933;-66
2024/01/01 01:47:43;;;;;;;;;;;6.90;99.90;;;;;;5038783;28;19925;-66
2024/01/01 01:50:11;;;;;;;;;;;6.80;99.90;;;;;;5030915;28;19925;-66
2024/01/01 01:52:39;;;;;;;;;;;6.80;99.90;;;;;;5036980;28;19929;-66
2024/01/01 01:55:09;;;;;;;;;;;6.70;99.90;;;;;;5034114;28;19924;-66
2024/01/01 01:57:38;;;;;;;;;;;6.60;99.90;;;;;;5048380;28;19924;-66
2024/01/01 02:00:06;;;;;;;;;;;6.50;99.90;;;;;;5041657;28;20418;-66
2024/01/01 02:02:35;;;;;;;;;;;6.50;99.90;;;;;;5031551;28;19993;-66
2024/01/01 02:05:03;;;;;;;;;;;6.50;99.90;;;;;;5039618;28;19936;-67
2024/01/01 02:07:31;;;;;;;;;;;6.50;99.90;;;;;;5032630;28;20403;-66
2024/01/01 02:10:00;;;;;;;;;;;6.40;99.90;;;;;;5036154;28;19928;-67
2024/01/01 02:12:29;;;;;;;;;;;6.50;99.90;;;;;;5031303;28;19978;-67
2024/01/01 02:14:57;;;;;;;;;;;6.50;99.90;;;;;;5030746;28;20346;-66
2024/01/01 02:17:25;;;;;;;;;;;6.50;99.90;;;;;;5031148;28;19929;-65
2024/01/01 02:19:53;;;;;;;;;;;6.50;99.90;;;;;;5033928;28;20443;-67
2024/01/01 02:22:36;;;;;;;;;;;6.40;99.90;;;;;;5034004;28;20024;-67
2024/01/01 02:25:06;;;;;;;;;;;6.50;99.90;;;;;;5030470;28;19926;-67
2024/01/01 02:27:34;;;;;;;;;;;6.50;99.90;;;;;;5052887;28;19925;-67
2024/01/01 02:30:02;;;;;;;;;;;6.50;99.90;;;;;;5048997;28;19925;-67
2024/01/01 02:32:30;;;;;;;;;;;6.60;99.90;;;;;;5030864;28;20024;-67
2024/01/01 02:34:58;;;;;;;;;;;6.60;99.90;;;;;;5030881;28;19929;-67
2024/01/01 02:37:26;;;;;;;;;;;6.70;99.90;;;;;;5038472;28;19925;-67
2024/01/01 02:39:53;;;;;;;;;;;6.70;99.90;;;;;;5035550;28;19925;-65
2024/01/01 02:42:22;;;;;;;;;;;6.80;99.90;;;;;;5042570;28;19933;-68
2024/01/01 02:44:50;;;;;;;;;;;6.70;99.90;;;;;;5034682;28;20351;-66
2024/01/01 02:47:18;;;;;;;;;;;6.70;99.90;;;;;;5030737;28;19925;-66
2024/01/01 02:49:46;;;;;;;;;;;6.70;99.90;;;;;;5030502;28;19944;-66
2024/01/01 02:52:13;;;;;;;;;;;6.60;99.90;;;;;;5030680;28;19952;-67
2024/01/01 02:54:41;;;;;;;;;;;6.60;99.90;;;;;;5030711;28;19925;-67
2024/01/01 02:57:09;;;;;;;;;;;6.70;99.90;;;;;;5044257;28;19925;-67
2024/01/01 02:59:38;;;;;;;;;;;6.70;99.90;;;;;;5034685;28;20402;-66
2024/01/01 03:02:07;;;;;;;;;;;6.70;99.90;;;;;;5030469;28;19925;-67
2024/01/01 03:04:34;;;;;;;;;;;6.70;99.90;;;;;;5030286;28;20012;-66
2024/01/01 03:07:02;;;;;;;;;;;6.70;99.90;;;;;;5031977;28;19932;-67
2024/01/01 03:09:30;;;;;;;;;;;6.70;99.90;;;;;;5030193;28;19929;-67
2024/01/01 03:11:57;;;;;;;;;;;6.70;99.90;;;;;;5032789;28;19933;-67
2024/01/01 03:14:25;;;;;;;;;;;6.70;99.90;;;;;;5030330;28;20300;-67
2024/01/01 03:16:54;;;;;;;;;;;6.70;99.90;;;;;;5030510;28;19932;-66
2024/01/01 03:19:22;;;;;;;;;;;6.80;99.90;;;;;;5029957;28;19979;-66
2024/01/01 03:21:50;;;;;;;;;;;6.80;99.90;;;;;;5030396;28;20019;-66
2024/01/01 03:24:17;;;;;;;;;;;6.90;99.90;;;;;;5033010;28;19933;-67
2024/01/01 03:26:45;;;;;;;;;;;7.00;99.90;;;;;;5042938;28;19932;-66
2024/01/01 03:29:13;;;;;;;;;;;7.00;99.90;;;;;;5062403;28;19931;-66
2024/01/01 03:31:43;;;;;;;;;;;7.10;99.90;;;;;;5030522;28;20720;-67
2024/01/01 03:34:12;;;;;;;;;;;7.20;99.90;;;;;;5030175;28;19929;-66
2024/01/01 03:36:40;;;;;;;;;;;7.20;99.90;;;;;;5030251;28;19979;-66
2024/01/01 03:39:08;;;;;;;;;;;7.20;99.90;;;;;;5029603;28;19983;-67
2024/01/01 03:41:36;;;;;;;;;;;7.20;99.90;;;;;;5030325;28;19925;-66
2024/01/01 03:44:04;;;;;;;;;;;7.30;99.90;;;;;;5030037;28;19979;-66
2024/01/01 03:46:31;;;;;;;;;;;7.20;99.90;;;;;;5030061;28;19933;-66
2024/01/01 03:48:59;;;;;;;;;;;7.20;99.90;;;;;;5032410;28;19925;-66
2024/01/01 03:51:28;;;;;;;;;;;7.20;99.90;;;;;;5034027;28;19925;-66
2024/01/01 03:53:57;;;;;;;;;;;7.20;99.90;;;;;;5033886;28;19925;-66
2024/01/01 03:56:24;;;;;;;;;;;7.20;99.90;;;;;;5041320;28;19928;-66
2024/01/01 03:58:52;;;;;;;;;;;7.20;99.90;;;;;;5057337;28;19932;-66
2024/01/01 04:01:20;;;;;;;;;;;7.30;99.90;;;;;;5033908;28;19931;-66
2024/01/01 04:03:48;;;;;;;;;;;7.40;99.90;;;;;;5033729;28;20418;-66
2024/01/01 04:06:16;;;;;;;;;;;7.30;99.90;;;;;;5032973;28;19934;-66
2024/01/01 04:08:45;;;;;;;;;;;7.30;99.90;;;;;;5035551;28;19932;-65
2024/01/01 04:11:13;;;;;;;;;;;7.20;99.90;;;;;;5033208;28;19952;-66
2024/01/01 04:13:41;;;;;;;;;;;7.10;99.90;;;;;;5033537;28;19971;-66
2024/01/01 04:16:09;;;;;;;;;;;7.10;99.90;;;;;;5032822;28;20445;-66
2024/01/01 04:18:37;;;;;;;;;;;7.00;99.90;;;;;;5033264;28;19929;-66
2024/01/01 04:21:05;;;;;;;;;;;7.10;99.90;;;;;;5032875;28;19975;-66
2024/01/01 04:23:33;;;;;;;;;;;7.10;99.90;;;;;;5033362;28;20392;-65
2024/01/01 04:26:02;;;;;;;;;;;7.10;99.90;;;;;;5033998;28;19972;-66
2024/01/01 04:28:30;;;;;;;;;;;7.10;99.90;;;;;;5064473;28;20007;-66
2024/01/01 04:30:57;;;;;;;;;;;7.10;99.90;;;;;;5039607;28;19925;-66
2024/01/01 04:33:25;;;;;;;;;;;7.00;99.90;;;;;;5033154;28;19976;-66
2024/01/01 04:35:53;;;;;;;;;;;7.00;99.90;;;;;;5032995;28;19925;-65
2024/01/01 04:38:21;;;;;;;;;;;7.10;99.90;;;;;;5033187;28;20430;-65
2024/01/01 04:40:49;;;;;;;;;;;7.10;99.90;;;;;;5032458;28;19925;-66
2024/01/01 04:43:18;;;;;;;;;;;7.10;99.90;;;;;;5032879;28;19925;-66
2024/01/01 04:45:46;;;;;;;;;;;7.10;99.90;;;;;;5032348;28;19925;-65
2024/01/01 04:48:13;;;;;;;;;;;7.10;99.90;;;;;;5032872;28;19929;-65
2024/01/01 04:50:41;;;;;;;;;;;7.10;99.90;;;;;;5043053;28;19931;-65
2024/01/01 04:53:09;;;;;;;;;;;7.10;99.90;;;;;;5032673;28;19928;-65
2024/01/01 04:55:37;;;;;;;;;;;7.00;99.90;;;;;;5032566;28;20331;-65
2024/01/01 04:58:04;;;;;;;;;;;6.90;99.90;;;;;;5067329;28;19924;-65
2024/01/01 05:00:34;;;;;;;;;;;6.90;99.90;;;;;;5053394;28;19929;-65
2024/01/01 05:03:02;;;;;;;;;;;6.80;99.90;;;;;;5038677;28;20364;-67
2024/01/01 05:05:30;;;;;;;;;;;6.80;99.90;;;;;;5036745;28;19929;-65
2024/01/01 05:07:58;;;;;;;;;;;6.80;99.90;;;;;;5035292;28;20323;-67
2024/01/01 05:10:25;;;;;;;;;;;6.80;99.90;;;;;;5035240;28;20315;-66
2024/01/01 05:12:54;;;;;;;;;;;6.70;99.90;;;;;;5036613;28;19933;-66
2024/01/01 05:15:21;;;;;;;;;;;6.60;99.90;;;;;;5031914;28;19925;-65
2024/01/01 05:17:50;;;;;;;;;;;6.60;99.90;;;;;;5032644;28;20008;-66
2024/01/01 05:20:18;;;;;;;;;;;6.60;99.90;;;;;;5031347;28;20381;-66
2024/01/01 05:22:46;;;;;;;;;;;6.60;99.90;;;;;;5032568;28;19925;-66
2024/01/01 05:25:14;;;;;;;;;;;6.60;99.90;;;;;;5031676;28;19994;-65
2024/01/01 05:27:42;;;;;;;;;;;6.60;99.90;;;;;;5060704;28;19993;-65
2024/01/01 05:30:10;;;;;;;;;;;6.60;99.90;;;;;;5032194;28;19929;-65
2024/01/01 05:32:38;;;;;;;;;;;6.50;99.90;;;;;;5031928;28;20012;-65
2024/01/01 05:35:08;;;;;;;;;;;6.40;99.90;;;;;;5031678;28;20384;-65
2024/01/01 05:37:35;;;;;;;;;;;6.40;99.90;;;;;;5031685;28;19925;-65
2024/01/01 05:40:03;;;;;;;;;;;6.30;99.90;;;;;;5031066;28;20296;-65
2024/01/01 05:42:32;;;;;;;;;;;6.30;99.90;;;;;;5031946;28;19936;-65
2024/01/01 05:45:00;;;;;;;;;;;6.30;99.90;;;;;;5031426;28;20420;-65
2024/01/01 05:47:27;;;;;;;;;;;6.30;99.90;;;;;;5031927;28;19925;-65
2024/01/01 05:49:55;;;;;;;;;;;6.30;99.90;;;;;;5031152;28;20304;-65
2024/01/01 05:52:24;;;;;;;;;;;6.30;99.90;;;;;;5031301;28;19932;-64
2024/01/01 05:54:52;;;;;;;;;;;6.40;99.90;;;;;;5038728;28;19978;-65
2024/01/01 05:57:20;;;;;;;;;;;6.30;99.90;;;;;;5061627;28;19978;-65
2024/01/01 05:59:48;;;;;;;;;;;6.30;99.90;;;;;;5058333;28;19929;-65
2024/01/01 06:02:15;;;;;;;;;;;6.40;99.90;;;;;;5031840;28;19971;-65
2024/01/01 06:04:43;;;;;;;;;;;6.40;99.90;;;;;;5031181;28;20168;-65
2024/01/01 06:07:11;;;;;;;;;;;6.40;99.90;;;;;;5040338;28;20414;-65
2024/01/01 06:09:40;;;;;;;;;;;6.50;99.90;;;;;;5030947;28;19932;-65
2024/01/01 06:12:08;;;;;;;;;;;6.50;99.90;;;;;;5030878;28;19932;-65
2024/01/01 06:14:36;;;;;;;;;;;6.50;99.90;;;;;;5030885;28;19937;-65
2024/01/01 06:17:04;;;;;;;;;;;6.50;99.90;;;;;;5030900;28;19933;-65
2024/01/01 06:19:32;;;;;;;;;;;6.40;99.90;;;;;;5034758;28;20457;-65
2024/01/01 06:22:00;;;;;;;;;;;6.50;99.90;;;;;;5035001;28;20020;-64
2024/01/01 06:24:27;;;;;;;;;;;6.50;99.90;;;;;;5034560;28;19924;-65
2024/01/01 06:26:57;;;;;;;;;;;6.50;99.90;;;;;;5051127;28;19978;-65
2024/01/01 06:29:26;;;;;;;;;;;6.60;99.90;;;;;;5064199;28;19925;-65
2024/01/01 06:31:54;;;;;;;;;;;6.60;99.90;;;;;;5030769;28;19929;-65
2024/01/01 06:34:22;;;;;;;;;;;6.70;99.90;;;;;;5030788;28;19925;-65
2024/01/01 06:36:50;;;;;;;;;;;6.60;99.90;;;;;;5030963;28;19964;-65
2024/01/01 06:39:17;;;;;;;;;;;6.60;99.90;;;;;;5038668;28;19925;-65
2024/01/01 06:41:45;;;;;;;;;;;6.60;99.90;;;;;;5030920;28;19975;-65
2024/01/01 06:44:14;;;;;;;;;;;6.60;99.90;;;;;;5030461;28;19932;-66
2024/01/01 06:46:42;;;;;;;;;;;6.60;99.90;;;;;;5030447;28;19925;-66
2024/01/01 06:49:10;;;;;;;;;;;6.60;99.90;;;;;;5030181;28;19925;-65
2024/01/01 06:51:37;;;;;;;;;;;6.60;99.90;;;;;;5030398;28;19925;-65
2024/01/01 06:54:05;;;;;;;;;;;6.50;99.90;;;;;;5030676;28;19925;-66
2024/01/01 06:56:33;;;;;;;;;;;6.60;99.90;;;;;;5040488;28;19924;-64
2024/01/01 06:59:01;;;;;;;;;;;6.70;99.90;;;;;;5056540;28;19930;-64
2024/01/01 07:01:30;;;;;;;;;;;6.50;99.90;;;;;;5030350;28;20384;-64
2024/01/01 07:03:58;;;;;;;;;;;6.40;99.90;;;;;;5030983;28;19925;-65
2024/01/01 07:06:26;;;;;;;;;;;6.40;99.90;;;;;;5030003;28;19925;-64
2024/01/01 07:08:53;;;;;;;;;;;6.30;99.90;;;;;;5034195;28;19925;-64
2024/01/01 07:11:21;;;;;;;;;;;6.20;99.90;;;;;;5030422;28;19933;-64
2024/01/01 07:13:49;;;;;;;;;;;6.20;99.90;;;;;;5030569;28;19956;-64
2024/01/01 07:16:17;;;;;;;;;;;6.20;99.90;;;;;;5029762;28;19925;-64
2024/01/01 07:18:46;;;;;;;;;;;6.20;99.90;;;;;;5029963;28;20321;-64
2024/01/01 07:21:14;;;;;;;;;;;6.10;99.90;;;;;;5041044;28;19924;-64
2024/01/01 07:23:42;;;;;;;;;;;6.10;99.90;;;;;;5037545;28;19979;-64
2024/01/01 07:26:09;;;;;;;;;;;6.10;99.90;;;;;;5039290;28;20438;-64
2024/01/01 07:28:37;;;;;;;;;;;6.20;99.90;;;;;;5074196;28;19925;-65
2024/01/01 07:31:05;;;;;;;;;;;6.10;99.90;;;;;;5041559;28;20436;-64
2024/01/01 07:33:33;;;;;;;;;;;6.10;99.90;;;;;;5033853;28;19931;-65
2024/01/01 07:36:02;;;;;;;;;;;6.10;99.90;;;;;;5048665;28;20019;-64
2024/01/01 07:38:30;;;;;;;;;;;6.10;99.90;;;;;;5034418;28;19933;-65
2024/01/01 07:40:57;;;;;;;;;;;6.20;99.90;;;;;;5041289;28;20160;-64
2024/01/01 07:43:25;;;;;;;;;;;6.20;99.90;;;;;;5041603;28;20028;-65
2024/01/01 07:45:53;;;;;;;;;;;6.30;99.90;;;;;;5033323;28;19983;-65
2024/01/01 07:48:21;;;;;;;;;;;6.30;99.90;;;;;;5033964;28;19934;-65
2024/01/01 07:50:49;;;;;;;;;;;6.30;99.90;;;;;;5049244;28;19936;-65
2024/01/01 07:53:18;;;;;;;;;;;6.30;99.90;;;;;;5032691;28;19929;-65
2024/01/01 07:55:46;;;;;;;;;;;6.30;99.90;;;;;;5035442;28;19956;-66
2024/01/01 07:58:14;;;;;;;;;;;6.30;99.90;;;;;;5050333;28;20456;-66
2024/01/01 08:00:41;;;;;;;;;;;6.30;99.90;;;;;;5055027;28;20592;-65
2024/01/01 08:03:09;;;;;;;;;;;6.30;99.90;;;;;;5055456;28;19970;-66
2024/01/01 08:05:37;;;;;;;;;;;6.40;99.90;;;;;;5054202;28;20802;-66
2024/01/01 08:08:06;;;;;;;;;;;6.50;99.90;;;;;;5055950;28;19986;-66
2024/01/01 08:10:36;;;;;;;;;;;6.60;99.90;;;;;;5054341;28;19972;-66
2024/01/01 08:13:04;;;;;;;;;;;6.70;99.90;;;;;;5054458;28;19939;-66
2024/01/01 08:15:31;;;;;;;;;;;6.70;99.90;;;;;;5054687;28;20775;-66
2024/01/01 08:17:59;;;;;;;;;;;6.80;99.90;;;;;;5054504;28;20363;-66
2024/01/01 08:20:27;;;;;;;;;;;6.80;99.90;;;;;;5054688;28;19932;-66
2024/01/01 08:22:55;;;;;;;;;;;6.80;99.90;;;;;;5056229;28;20446;-65
2024/01/01 08:25:23;;;;;;;;;;;6.90;99.90;;;;;;5053337;28;19988;-67
2024/01/01 08:27:52;;;;;;;;;;;6.80;99.90;;;;;;5053649;28;20326;-66
2024/01/01 08:30:20;;;;;;;;;;;6.90;99.90;;;;;;5037351;28;19954;-65
2024/01/01 08:32:48;;;;;;;;;;;6.90;99.90;;;;;;5055625;28;19929;-65
2024/01/01 08:35:16;;;;;;;;;;;6.90;99.90;;;;;;5051132;28;19932;-64
2024/01/01 08:37:43;;;;;;;;;;;7.00;99.90;;;;;;5054614;28;19933;-65
2024/01/01 08:40:12;;;;;;;;;;;7.00;99.90;;;;;;5053786;28;20757;-65
2024/01/01 08:42:40;;;;;;;;;;;7.10;99.90;;;;;;5055784;28;19929;-65
2024/01/01 08:45:10;;;;;;;;;;;7.40;99.90;;;;;;5054814;28;19944;-65
2024/01/01 08:47:39;;;;;;;;;;;7.70;99.90;;;;;;5053031;28;19940;-66
2024/01/01 08:50:08;;;;;;;;;;;7.90;99.90;;;;;;5055974;28;20611;-65
2024/01/01 08:52:36;;;;;;;;;;;8.00;99.90;;;;;;5056057;28;20296;-65
2024/01/01 08:55:04;;;;;;;;;;;8.00;99.90;;;;;;5053011;28;19940;-66
2024/01/01 08:57:32;;;;;;;;;;;8.20;99.90;;;;;;5053272;28;20002;-65
2024/01/01 08:59:59;;;;;;;;;;;8.50;99.90;;;;;;5054192;28;19928;-65
2024/01/01 09:02:28;;;;;;;;;;;8.70;99.90;;;;;;5055023;28;19937;-66
2024/01/01 09:04:56;;;;;;;;;;;8.90;99.90;;;;;;5054463;28;19943;-65
2024/01/01 09:07:24;;;;;;;;;;;9.10;99.90;;;;;;5051748;28;19933;-66
2024/01/01 09:09:52;;;;;;;;;;;9.00;99.90;;;;;;5053531;28;20565;-65
2024/01/01 09:12:20;;;;;;;;;;;8.70;99.90;;;;;;5054736;28;19928;-65
2024/01/01 09:14:47;;;;;;;;;;;8.70;99.90;;;;;;5054211;28;20625;-65
2024/01/01 09:17:15;;;;;;;;;;;8.90;99.90;;;;;;5051937;28;19936;-64
2024/01/01 09:19:45;;;;;;;;;;;8.70;99.90;;;;;;5053076;28;19939;-65
2024/01/01 09:22:13;;;;;;;;;;;8.50;99.90;;;;;;5055128;28;19942;-66
2024/01/01 09:24:41;;;;;;;;;;;8.40;99.90;;;;;;5052050;28;19932;-66
2024/01/01 09:27:09;;;;;;;;;;;8.20;99.90;;;;;;5051132;28;20023;-65
2024/01/01 09:29:37;;;;;;;;;;;8.20;99.90;;;;;;5054694;28;19932;-66
2024/01/01 09:32:05;;;;;;;;;;;8.00;99.90;;;;;;5056932;28;20657;-66
2024/01/01 09:34:33;;;;;;;;;;;8.00;99.90;;;;;;5053578;28;19932;-67
2024/01/01 09:37:02;;;;;;;;;;;7.90;99.90;;;;;;5050527;28;19950;-65
2024/01/01 09:39:31;;;;;;;;;;;7.80;99.90;;;;;;5052009;28;19932;-66
2024/01/01 09:42:01;;;;;;;;;;;7.60;99.90;;;;;;5056817;28;20074;-65
2024/01/01 09:44:29;;;;;;;;;;;7.50;99.90;;;;;;5055315;28;19932;-64
2024/01/01 09:46:57;;;;;;;;;;;7.50;99.90;;;;;;5052676;28;19933;-66
2024/01/01 09:49:25;;;;;;;;;;;7.40;99.90;;;;;;5052944;28;19932;-64
2024/01/01 09:51:56;;;;;;;;;;;7.40;99.90;;;;;;5051958;28;19928;-64
2024/01/01 09:54:25;;;;;;;;;;;7.40;99.90;;;;;;5052359;28;20570;-65
2024/01/01 09:56:53;;;;;;;;;;;7.40;99.90;;;;;;5048649;28;20604;-64
2024/01/01 09:59:34;;;;;;;;;;;7.40;99.90;;;;;;5053690;28;19925;-65
2024/01/01 10:02:02;;;;;;;;;;;7.30;99.90;;;;;;5055471;28;19952;-66
2024/01/01 10:04:30;;;;;;;;;;;7.40;99.90;;;;;;5053658;28;19976;-65
2024/01/01 10:06:59;;;;;;;;;;;7.40;99.90;;;;;;5050496;28;19928;-65
2024/01/01 10:09:28;;;;;;;;;;;7.40;99.90;;;;;;5053537;28;19937;-65
2024/01/01 10:12:06;;;;;;;;;;;7.40;99.90;;;;;;5051296;28;19932;-66
2024/01/01 10:14:34;;;;;;;;;;;7.50;99.90;;;;;;5053710;28;20073;-65
2024/01/01 10:17:11;;;;;;;;;;;7.50;99.90;;;;;;5051133;28;19932;-65
2024/01/01 10:19:49;;;;;;;;;;;7.40;99.90;;;;;;5053746;28;19932;-67
2024/01/01 10:22:18;;;;;;;;;;;7.50;99.90;;;;;;5052574;28;19932;-66
2024/01/01 10:24:48;;;;;;;;;;;7.50;99.90;;;;;;5051313;28;20050;-66
2024/01/01 10:27:17;;;;;;;;;;;7.50;99.90;;;;;;5048271;28;20737;-66
2024/01/01 10:29:46;;;;;;;;;;;7.50;99.90;;;;;;5052763;28;19929;-65
2024/01/01 10:32:15;;;;;;;;;;;7.50;99.90;;;;;;5056157;28;20430;-65
2024/01/01 10:34:45;;;;;;;;;;;7.50;99.90;;;;;;5054449;28;20101;-65
2024/01/01 10:37:12;;;;;;;;;;;7.50;99.90;;;;;;5050733;28;19928;-64
2024/01/01 10:39:41;;;;;;;;;;;7.60;99.90;;;;;;5055767;28;19932;-66
2024/01/01 10:42:10;;;;;;;;;;;7.60;99.90;;;;;;5050826;28;19932;-65
2024/01/01 10:44:39;;;;;;;;;;;7.70;99.90;;;;;;5054360;28;20220;-65
2024/01/01 10:47:07;;;;;;;;;;;7.80;99.90;;;;;;5051644;28;20323;-65
2024/01/01 10:49:36;;;;;;;;;;;7.80;99.90;;;;;;5053573;28;19933;-65
2024/01/01 10:52:13;;;;;;;;;;;7.80;99.90;;;;;;5052271;28;19934;-66
2024/01/01 10:54:54;;;;;;;;;;;7.80;99.90;;;;;;5054208;28;20960;-63
2024/01/01 10:57:32;;;;;;;;;;;7.80;99.90;;;;;;5051791;28;19933;-64
2024/01/01 11:00:05;;;;;;;;;;;7.90;99.90;;;;;;5053388;28;19933;-64
2024/01/01 11:02:33;;;;;;;;;;;7.90;99.90;;;;;;5056375;28;20019;-65
2024/01/01 11:05:07;;;;;;;;;;;7.90;99.90;;;;;;5057269;28;19928;-64
2024/01/01 11:07:54;;;;;;;;;;;7.90;99.90;;;;;;5052662;28;19959;-65
2024/01/01 11:10:34;;;;;;;;;;;7.90;99.90;;;;;;5058090;28;19925;-64
2024/01/01 11:13:04;;;;;;;;;;;7.90;99.90;;;;;;5054302;28;20815;-66
2024/01/01 11:15:38;;;;;;;;;;;7.90;99.90;;;;;;5055310;28;19964;-65
2024/01/01 11:18:15;;;;;;;;;;;8.00;99.90;;;;;;5058017;28;19959;-66
2024/01/01 11:20:51;;;;;;;;;;;7.90;99.90;;;;;;5055096;28;20032;-66
2024/01/01 11:23:38;;;;;;;;;;;8.00;99.90;;;;;;5054573;28;19931;-66
2024/01/01 11:26:23;;;;;;;;;;;7.90;99.90;;;;;;5057449;28;19940;-66
2024/01/01 11:28:54;;;;;;;;;;;8.00;99.90;;;;;;5056255;28;19925;-68
2024/01/01 11:31:22;;;;;;;;;;;8.00;99.90;;;;;;5053086;28;20022;-66
2024/01/01 11:34:03;;;;;;;;;;;8.00;99.90;;;;;;5057780;28;19940;-66
2024/01/01 11:36:47;;;;;;;;;;;8.00;99.90;;;;;;5055423;28;19960;-66
2024/01/01 11:39:16;;;;;;;;;;;8.00;99.90;;;;;;5055917;28;19933;-67
2024/01/01 11:41:46;;;;;;;;;;;8.00;99.90;;;;;;5053348;28;20037;-66
2024/01/01 11:44:15;;;;;;;;;;;8.10;99.90;;;;;;5058606;28;19940;-66
2024/01/01 11:46:43;;;;;;;;;;;8.10;99.90;;;;;;5056904;28;19978;-65
2024/01/01 11:49:11;;;;;;;;;;;8.20;99.90;;;;;;5055699;28;19933;-66
2024/01/01 11:51:50;;;;;;;;;;;8.20;99.90;;;;;;5052303;28;19929;-67
2024/01/01 11:54:18;;;;;;;;;;;8.20;99.90;;;;;;5057894;28;19978;-67
2024/01/01 11:56:46;;;;;;;;;;;8.20;99.90;;;;;;5054627;28;19944;-68
2024/01/01 11:59:16;;;;;;;;;;;8.30;99.90;;;;;;5057398;28;20036;-67
2024/01/01 12:01:44;;;;;;;;;;;8.20;99.90;;;;;;5053893;28;19936;-67
2024/01/01 12:04:12;;;;;;;;;;;8.30;99.90;;;;;;5057003;28;19935;-68
2024/01/01 12:06:40;;;;;;;;;;;8.20;99.90;;;;;;5057495;28;20018;-68
2024/01/01 12:09:10;;;;;;;;;;;8.20;99.90;;;;;;5056058;28;20600;-67
2024/01/01 12:11:38;;;;;;;;;;;8.10;99.90;;;;;;5054116;28;19936;-68
2024/01/01 12:14:06;;;;;;;;;;;8.10;99.90;;;;;;5056858;28;19932;-67
2024/01/01 12:16:35;;;;;;;;;;;8.10;99.90;;;;;;5036284;28;19936;-66
2024/01/01 12:19:04;;;;;;;;;;;8.00;99.90;;;;;;5056351;28;20415;-67
2024/01/01 12:21:38;;;;;;;;;;;8.00;99.90;;;;;;5056937;28;19982;-66
2024/01/01 12:24:08;;;;;;;;;;;8.00;99.90;;;;;;5054769;28;19932;-67
2024/01/01 12:26:36;;;;;;;;;;;8.00;99.90;;;;;;5054929;28;20374;-66
2024/01/01 12:29:11;;;;;;;;;;;8.00;99.90;;;;;;5057167;28;19928;-67
2024/01/01 12:31:41;;;;;;;;;;;8.00;99.90;;;;;;5055991;28;19940;-65
2024/01/01 12:34:12;;;;;;;;;;;8.00;99.90;;;;;;5056518;28;19939;-65
2024/01/01 12:36:40;;;;;;;;;;;7.90;99.90;;;;;;5056148;28;19933;-67
2024/01/01 12:39:08;;;;;;;;;;;7.90;99.90;;;;;;5056454;28;19936;-66
2024/01/01 12:41:36;;;;;;;;;;;7.80;99.90;;;;;;5056837;28;19932;-65
2024/01/01 12:44:04;;;;;;;;;;;7.80;99.90;;;;;;5056162;28;19932;-67
2024/01/01 12:46:32;;;;;;;;;;;7.70;99.90;;;;;;5055869;28;20552;-66
2024/01/01 12:49:01;;;;;;;;;;;7.70;99.90;;;;;;5054939;28;19933;-66
2024/01/01 12:51:30;;;;;;;;;;;7.80;99.90;;;;;;5055712;28;20062;-66
2024/01/01 12:53:58;;;;;;;;;;;7.70;99.90;;;;;;5056453;28;19940;-67
2024/01/01 12:56:26;;;;;;;;;;;7.80;99.90;;;;;;5055223;28;19933;-68
2024/01/01 12:58:54;;;;;;;;;;;7.80;99.90;;;;;;5054303;28;19933;-68
2024/01/01 13:01:23;;;;;;;;;;;7.80;99.90;;;;;;5052338;28;19935;-67
2024/01/01 13:03:50;;;;;;;;;;;7.80;99.90;;;;;;5056033;28;19932;-67
2024/01/01 13:06:20;;;;;;;;;;;7.80;99.90;;;;;;5054586;28;19928;-67
2024/01/01 13:08:49;;;;;;;;;;;7.80;99.90;;;;;;5054217;28;19928;-67
2024/01/01 13:11:18;;;;;;;;;;;7.80;99.90;;;;;;5054441;28;19939;-66
2024/01/01 13:13:46;;;;;;;;;;;7.80;99.90;;;;;;5054633;28;19964;-67
2024/01/01 13:16:14;;;;;;;;;;;7.80;99.90;;;;;;5056005;28;19933;-66
2024/01/01 13:18:42;;;;;;;;;;;7.80;99.90;;;;;;5057446;28;19936;-66
2024/01/01 13:21:10;;;;;;;;;;;7.80;99.90;;;;;;5055220;28;19963;-67
2024/01/01 13:23:39;;;;;;;;;;;7.80;99.90;;;;;;5057757;28;20342;-67
2024/01/01 13:26:07;;;;;;;;;;;7.80;99.90;;;;;;5056170;28;20754;-66
2024/01/01 13:28:35;;;;;;;;;;;7.80;99.90;;;;;;5056165;28;20403;-67
2024/01/01 13:31:03;;;;;;;;;;;7.80;99.90;;;;;;5056580;28;19940;-66
2024/01/01 13:33:31;;;;;;;;;;;7.80;99.90;;;;;;5057936;28;19932;-67
2024/01/01 13:35:59;;;;;;;;;;;7.80;99.90;;;;;;5056362;28;20738;-67
2024/01/01 13:38:27;;;;;;;;;;;7.80;99.90;;;;;;5056744;28;19932;-67
2024/01/01 13:40:56;;;;;;;;;;;7.90;99.90;;;;;;5056466;28;20368;-66
2024/01/01 13:43:24;;;;;;;;;;;7.90;99.90;;;;;;5055682;28;20314;-66
2024/01/01 13:45:54;;;;;;;;;;;7.90;99.90;;;;;;5057299;28;19970;-67
2024/01/01 13:48:22;;;;;;;;;;;8.00;99.90;;;;;;5056383;28;19950;-67
2024/01/01 13:50:50;;;;;;;;;;;8.00;99.90;;;;;;5055500;28;19930;-66
2024/01/01 13:53:18;;;;;;;;;;;8.10;99.90;;;;;;5056564;28;20361;-66
2024/01/01 13:55:46;;;;;;;;;;;8.10;99.90;;;;;;5056111;28;19929;-66
2024/01/01 13:58:15;;;;;;;;;;;8.20;99.90;;;;;;5056005;28;19986;-66
2024/01/01 14:00:44;;;;;;;;;;;8.30;99.90;;;;;;5056435;28;20027;-67
2024/01/01 14:03:14;;;;;;;;;;;8.20;99.90;;;;;;5056769;28;20310;-67
2024/01/01 14:05:42;;;;;;;;;;;8.30;99.90;;;;;;5056713;28;19936;-67
2024/01/01 14:08:10;;;;;;;;;;;8.30;99.90;;;;;;5056401;28;19935;-67
2024/01/01 14:10:38;;;;;;;;;;;8.30;99.90;;;;;;5056162;28;20027;-67
2024/01/01 14:13:06;;;;;;;;;;;8.30;99.90;;;;;;5056042;28;20376;-67
2024/01/01 14:15:38;;;;;;;;;;;8.20;99.90;;;;;;5056290;28;19932;-67
2024/01/01 14:18:06;;;;;;;;;;;8.20;99.90;;;;;;5055634;28;19932;-67
2024/01/01 14:20:35;;;;;;;;;;;8.20;99.90;;;;;;5056591;28;20371;-67
2024/01/01 14:23:03;;;;;;;;;;;8.20;99.90;;;;;;5056205;28;20670;-65
2024/01/01 14:25:31;;;;;;;;;;;8.20;99.90;;;;;;5056831;28;20676;-68
2024/01/01 14:27:59;;;;;;;;;;;8.10;99.90;;;;;;5055041;28;19928;-66
2024/01/01 14:30:27;;;;;;;;;;;8.10;99.90;;;;;;5054434;28;20396;-67
2024/01/01 14:32:57;;;;;;;;;;;8.10;99.90;;;;;;5054029;28;19933;-67
2024/01/01 14:35:25;;;;;;;;;;;8.00;99.90;;;;;;5055499;28;19934;-66
2024/01/01 14:37:53;;;;;;;;;;;8.00;99.90;;;;;;5054475;28;19979;-67
2024/01/01 14:40:21;;;;;;;;;;;8.10;99.90;;;;;;5056407;28;20069;-67